sensor_id;sensor_type;location;lat;lon;timestamp;P1;durP1;ratioP1;P2;durP2;ratioP2
65358;SDS011;52491;45.900;6.346;2023-09-19T00:00:30;0.85;;;0.47;;
65358;SDS011;52491;45.900;6.346;2023-09-19T00:02:57;1.27;;;0.70;;
65358;SDS011;52491;45.900;6.346;2023-09-19T00:05:26;1.70;;;0.55;;
65358;SDS011;52491;45.900;6.346;2023-09-19T00:07:55;2.15;;;0.57;;
65358;SDS011;52491;45.900;6.346;2023-09-19T00:10:25;0.90;;;0.50;;
65358;SDS011;52491;45.900;6.346;2023-09-19T00:12:56;0.50;;;0.50;;
65358;SDS011;52491;45.900;6.346;2023-09-19T00:15:24;0.80;;;0.60;;
65358;SDS011;52491;45.900;6.346;2023-09-19T00:17:53;3.10;;;0.85;;
65358;SDS011;52491;45.900;6.346;2023-09-19T00:20:19;1.25;;;0.52;;
65358;SDS011;52491;45.900;6.346;2023-09-19T00:22:48;0.77;;;0.57;;
65358;SDS011;52491;45.900;6.346;2023-09-19T00:25:17;0.77;;;0.68;;
65358;SDS011;52491;45.900;6.346;2023-09-19T00:27:43;0.50;;;0.30;;
65358;SDS011;52491;45.900;6.346;2023-09-19T00:30:10;1.08;;;0.70;;
65358;SDS011;52491;45.900;6.346;2023-09-19T00:32:39;0.57;;;0.30;;
65358;SDS011;52491;45.900;6.346;2023-09-19T00:35:05;0.98;;;0.40;;
65358;SDS011;52491;45.900;6.346;2023-09-19T00:37:33;0.55;;;0.55;;
65358;SDS011;52491;45.900;6.346;2023-09-19T00:39:59;1.20;;;0.50;;
65358;SDS011;52491;45.900;6.346;2023-09-19T00:42:24;0.73;;;0.60;;
65358;SDS011;52491;45.900;6.346;2023-09-19T00:44:51;1.15;;;0.55;;
65358;SDS011;52491;45.900;6.346;2023-09-19T00:47:17;0.30;;;0.30;;
65358;SDS011;52491;45.900;6.346;2023-09-19T00:49:46;0.30;;;0.30;;
65358;SDS011;52491;45.900;6.346;2023-09-19T00:52:14;3.30;;;0.68;;
65358;SDS011;52491;45.900;6.346;2023-09-19T00:54:45;1.15;;;0.63;;
65358;SDS011;52491;45.900;6.346;2023-09-19T00:57:12;0.60;;;0.60;;
65358;SDS011;52491;45.900;6.346;2023-09-19T00:59:37;0.40;;;0.35;;
65358;SDS011;52491;45.900;6.346;2023-09-19T01:02:03;1.02;;;0.65;;
65358;SDS011;52491;45.900;6.346;2023-09-19T01:04:29;2.40;;;1.00;;
65358;SDS011;52491;45.900;6.346;2023-09-19T01:06:56;0.50;;;0.45;;
65358;SDS011;52491;45.900;6.346;2023-09-19T01:09:23;0.82;;;0.60;;
65358;SDS011;52491;45.900;6.346;2023-09-19T01:11:49;0.47;;;0.47;;
65358;SDS011;52491;45.900;6.346;2023-09-19T01:17:25;1.52;;;0.77;;
65358;SDS011;52491;45.900;6.346;2023-09-19T01:22:48;1.88;;;0.45;;
65358;SDS011;52491;45.900;6.346;2023-09-19T01:28:32;0.70;;;0.50;;
65358;SDS011;52491;45.900;6.346;2023-09-19T01:31:11;0.63;;;0.43;;
65358;SDS011;52491;45.900;6.346;2023-09-19T01:33:59;0.93;;;0.45;;
65358;SDS011;52491;45.900;6.346;2023-09-19T01:36:27;1.52;;;0.80;;
65358;SDS011;52491;45.900;6.346;2023-09-19T01:38:54;1.02;;;0.50;;
65358;SDS011;52491;45.900;6.346;2023-09-19T01:41:28;0.90;;;0.50;;
65358;SDS011;52491;45.900;6.346;2023-09-19T01:44:04;1.23;;;0.55;;
65358;SDS011;52491;45.900;6.346;2023-09-19T01:46:35;2.83;;;0.73;;
65358;SDS011;52491;45.900;6.346;2023-09-19T01:49:22;0.70;;;0.70;;
65358;SDS011;52491;45.900;6.346;2023-09-19T01:52:11;1.52;;;0.90;;
65358;SDS011;52491;45.900;6.346;2023-09-19T01:54:51;1.27;;;0.60;;
65358;SDS011;52491;45.900;6.346;2023-09-19T01:57:26;1.63;;;0.60;;
65358;SDS011;52491;45.900;6.346;2023-09-19T02:00:02;1.35;;;0.55;;
65358;SDS011;52491;45.900;6.346;2023-09-19T02:02:35;2.15;;;0.50;;
65358;SDS011;52491;45.900;6.346;2023-09-19T02:05:03;0.50;;;0.50;;
65358;SDS011;52491;45.900;6.346;2023-09-19T02:07:31;1.38;;;0.50;;
65358;SDS011;52491;45.900;6.346;2023-09-19T02:09:58;3.08;;;0.90;;
65358;SDS011;52491;45.900;6.346;2023-09-19T02:12:30;2.58;;;0.80;;
65358;SDS011;52491;45.900;6.346;2023-09-19T02:14:58;13.38;;;3.58;;
65358;SDS011;52491;45.900;6.346;2023-09-19T02:17:24;5.65;;;2.13;;
65358;SDS011;52491;45.900;6.346;2023-09-19T02:19:51;10.82;;;2.60;;
65358;SDS011;52491;45.900;6.346;2023-09-19T02:22:20;16.50;;;4.05;;
65358;SDS011;52491;45.900;6.346;2023-09-19T02:24:47;14.32;;;4.18;;
65358;SDS011;52491;45.900;6.346;2023-09-19T02:27:13;12.15;;;4.35;;
65358;SDS011;52491;45.900;6.346;2023-09-19T02:29:41;8.73;;;3.13;;
65358;SDS011;52491;45.900;6.346;2023-09-19T02:32:07;7.82;;;2.95;;
65358;SDS011;52491;45.900;6.346;2023-09-19T02:34:34;9.75;;;2.85;;
65358;SDS011;52491;45.900;6.346;2023-09-19T02:37:02;9.90;;;2.80;;
65358;SDS011;52491;45.900;6.346;2023-09-19T02:39:30;7.40;;;2.85;;
65358;SDS011;52491;45.900;6.346;2023-09-19T02:41:56;11.63;;;3.17;;
65358;SDS011;52491;45.900;6.346;2023-09-19T02:44:22;10.68;;;3.08;;
65358;SDS011;52491;45.900;6.346;2023-09-19T02:46:48;9.32;;;3.47;;
65358;SDS011;52491;45.900;6.346;2023-09-19T02:49:14;16.80;;;3.10;;
65358;SDS011;52491;45.900;6.346;2023-09-19T02:51:40;9.98;;;3.33;;
65358;SDS011;52491;45.900;6.346;2023-09-19T02:54:06;5.03;;;2.05;;
65358;SDS011;52491;45.900;6.346;2023-09-19T02:56:32;12.65;;;2.78;;
65358;SDS011;52491;45.900;6.346;2023-09-19T02:58:58;9.55;;;2.22;;
65358;SDS011;52491;45.900;6.346;2023-09-19T03:01:25;7.35;;;2.83;;
65358;SDS011;52491;45.900;6.346;2023-09-19T03:03:53;8.00;;;2.38;;
65358;SDS011;52491;45.900;6.346;2023-09-19T03:06:19;4.22;;;2.45;;
65358;SDS011;52491;45.900;6.346;2023-09-19T03:08:45;6.05;;;2.60;;
65358;SDS011;52491;45.900;6.346;2023-09-19T03:11:11;5.18;;;2.40;;
65358;SDS011;52491;45.900;6.346;2023-09-19T03:13:40;5.65;;;2.38;;
65358;SDS011;52491;45.900;6.346;2023-09-19T03:16:07;4.28;;;2.33;;
65358;SDS011;52491;45.900;6.346;2023-09-19T03:18:34;3.45;;;1.90;;
65358;SDS011;52491;45.900;6.346;2023-09-19T03:20:59;4.95;;;1.70;;
65358;SDS011;52491;45.900;6.346;2023-09-19T03:23:26;5.55;;;1.92;;
65358;SDS011;52491;45.900;6.346;2023-09-19T03:25:53;5.28;;;2.38;;
65358;SDS011;52491;45.900;6.346;2023-09-19T03:28:24;4.18;;;1.45;;
65358;SDS011;52491;45.900;6.346;2023-09-19T03:31:02;5.15;;;1.90;;
65358;SDS011;52491;45.900;6.346;2023-09-19T03:33:29;5.80;;;1.92;;
65358;SDS011;52491;45.900;6.346;2023-09-19T03:35:57;6.60;;;1.75;;
65358;SDS011;52491;45.900;6.346;2023-09-19T03:38:24;3.67;;;1.63;;
65358;SDS011;52491;45.900;6.346;2023-09-19T03:40:50;6.75;;;1.48;;
65358;SDS011;52491;45.900;6.346;2023-09-19T03:43:16;6.25;;;2.70;;
65358;SDS011;52491;45.900;6.346;2023-09-19T03:45:42;4.22;;;1.73;;
65358;SDS011;52491;45.900;6.346;2023-09-19T03:48:11;6.50;;;1.70;;
65358;SDS011;52491;45.900;6.346;2023-09-19T03:50:37;3.88;;;1.58;;
65358;SDS011;52491;45.900;6.346;2023-09-19T03:53:03;3.75;;;1.30;;
65358;SDS011;52491;45.900;6.346;2023-09-19T03:55:28;2.97;;;1.80;;
65358;SDS011;52491;45.900;6.346;2023-09-19T03:57:57;4.28;;;1.33;;
65358;SDS011;52491;45.900;6.346;2023-09-19T04:00:23;3.15;;;1.60;;
65358;SDS011;52491;45.900;6.346;2023-09-19T04:02:51;3.78;;;1.42;;
65358;SDS011;52491;45.900;6.346;2023-09-19T04:05:18;10.05;;;1.67;;
65358;SDS011;52491;45.900;6.346;2023-09-19T04:07:44;4.75;;;1.45;;
65358;SDS011;52491;45.900;6.346;2023-09-19T04:10:10;3.55;;;0.95;;
65358;SDS011;52491;45.900;6.346;2023-09-19T04:12:39;4.30;;;1.55;;
65358;SDS011;52491;45.900;6.346;2023-09-19T04:15:05;2.33;;;1.10;;
65358;SDS011;52491;45.900;6.346;2023-09-19T04:17:32;3.20;;;1.27;;
65358;SDS011;52491;45.900;6.346;2023-09-19T04:19:58;2.85;;;1.30;;
65358;SDS011;52491;45.900;6.346;2023-09-19T04:22:24;2.22;;;1.13;;
65358;SDS011;52491;45.900;6.346;2023-09-19T04:24:50;5.60;;;1.50;;
65358;SDS011;52491;45.900;6.346;2023-09-19T04:27:16;3.35;;;1.08;;
65358;SDS011;52491;45.900;6.346;2023-09-19T04:29:41;1.77;;;1.10;;
65358;SDS011;52491;45.900;6.346;2023-09-19T04:32:07;5.63;;;1.20;;
65358;SDS011;52491;45.900;6.346;2023-09-19T04:34:34;1.63;;;0.80;;
65358;SDS011;52491;45.900;6.346;2023-09-19T04:36:59;1.83;;;1.15;;
65358;SDS011;52491;45.900;6.346;2023-09-19T04:39:26;3.15;;;0.88;;
65358;SDS011;52491;45.900;6.346;2023-09-19T04:41:52;3.53;;;1.30;;
65358;SDS011;52491;45.900;6.346;2023-09-19T04:44:18;1.98;;;1.08;;
65358;SDS011;52491;45.900;6.346;2023-09-19T04:46:44;0.75;;;0.70;;
65358;SDS011;52491;45.900;6.346;2023-09-19T04:49:11;1.73;;;0.90;;
65358;SDS011;52491;45.900;6.346;2023-09-19T04:51:37;2.85;;;1.08;;
65358;SDS011;52491;45.900;6.346;2023-09-19T04:54:04;1.40;;;0.77;;
65358;SDS011;52491;45.900;6.346;2023-09-19T04:56:30;3.85;;;1.02;;
65358;SDS011;52491;45.900;6.346;2023-09-19T04:58:57;1.30;;;0.55;;
65358;SDS011;52491;45.900;6.346;2023-09-19T05:01:23;2.42;;;0.98;;
65358;SDS011;52491;45.900;6.346;2023-09-19T05:03:49;2.20;;;0.80;;
65358;SDS011;52491;45.900;6.346;2023-09-19T05:06:21;3.15;;;0.70;;
65358;SDS011;52491;45.900;6.346;2023-09-19T05:08:47;2.08;;;0.90;;
65358;SDS011;52491;45.900;6.346;2023-09-19T05:11:17;2.05;;;0.90;;
65358;SDS011;52491;45.900;6.346;2023-09-19T05:13:43;1.17;;;0.70;;
65358;SDS011;52491;45.900;6.346;2023-09-19T05:16:08;4.85;;;1.75;;
65358;SDS011;52491;45.900;6.346;2023-09-19T05:18:35;13.75;;;1.55;;
65358;SDS011;52491;45.900;6.346;2023-09-19T05:21:04;12.80;;;1.80;;
65358;SDS011;52491;45.900;6.346;2023-09-19T05:23:30;21.02;;;1.58;;
65358;SDS011;52491;45.900;6.346;2023-09-19T05:25:56;16.88;;;1.20;;
65358;SDS011;52491;45.900;6.346;2023-09-19T05:28:24;6.18;;;1.45;;
65358;SDS011;52491;45.900;6.346;2023-09-19T05:30:50;5.03;;;1.45;;
65358;SDS011;52491;45.900;6.346;2023-09-19T05:33:16;4.95;;;0.93;;
65358;SDS011;52491;45.900;6.346;2023-09-19T05:35:43;8.85;;;1.60;;
65358;SDS011;52491;45.900;6.346;2023-09-19T05:38:09;3.50;;;0.98;;
65358;SDS011;52491;45.900;6.346;2023-09-19T05:40:35;9.32;;;1.80;;
65358;SDS011;52491;45.900;6.346;2023-09-19T05:43:00;3.80;;;1.40;;
65358;SDS011;52491;45.900;6.346;2023-09-19T05:45:29;9.70;;;2.00;;
65358;SDS011;52491;45.900;6.346;2023-09-19T05:47:54;10.32;;;1.95;;
65358;SDS011;52491;45.900;6.346;2023-09-19T05:50:29;10.32;;;1.48;;
65358;SDS011;52491;45.900;6.346;2023-09-19T05:52:55;3.47;;;1.05;;
65358;SDS011;52491;45.900;6.346;2023-09-19T05:55:21;6.82;;;1.08;;
65358;SDS011;52491;45.900;6.346;2023-09-19T05:57:53;9.10;;;1.95;;
65358;SDS011;52491;45.900;6.346;2023-09-19T06:00:19;6.90;;;1.50;;
65358;SDS011;52491;45.900;6.346;2023-09-19T06:02:52;4.10;;;1.05;;
65358;SDS011;52491;45.900;6.346;2023-09-19T06:05:18;6.20;;;1.45;;
65358;SDS011;52491;45.900;6.346;2023-09-19T06:07:43;6.55;;;1.30;;
65358;SDS011;52491;45.900;6.346;2023-09-19T06:10:09;3.58;;;1.00;;
65358;SDS011;52491;45.900;6.346;2023-09-19T06:12:41;6.97;;;1.67;;
65358;SDS011;52491;45.900;6.346;2023-09-19T06:15:11;6.10;;;1.25;;
65358;SDS011;52491;45.900;6.346;2023-09-19T06:17:51;6.00;;;1.33;;
65358;SDS011;52491;45.900;6.346;2023-09-19T06:20:24;2.55;;;1.00;;
65358;SDS011;52491;45.900;6.346;2023-09-19T06:22:51;1.70;;;1.05;;
65358;SDS011;52491;45.900;6.346;2023-09-19T06:25:18;7.88;;;1.15;;
65358;SDS011;52491;45.900;6.346;2023-09-19T06:27:45;2.22;;;1.27;;
65358;SDS011;52491;45.900;6.346;2023-09-19T06:30:14;3.03;;;1.10;;
65358;SDS011;52491;45.900;6.346;2023-09-19T06:32:40;2.67;;;0.80;;
65358;SDS011;52491;45.900;6.346;2023-09-19T06:35:12;3.60;;;1.00;;
65358;SDS011;52491;45.900;6.346;2023-09-19T06:37:39;3.83;;;1.20;;
65358;SDS011;52491;45.900;6.346;2023-09-19T06:40:12;3.95;;;1.00;;
65358;SDS011;52491;45.900;6.346;2023-09-19T06:42:46;1.75;;;0.88;;
65358;SDS011;52491;45.900;6.346;2023-09-19T06:45:13;3.92;;;1.10;;
65358;SDS011;52491;45.900;6.346;2023-09-19T06:47:44;1.38;;;0.90;;
65358;SDS011;52491;45.900;6.346;2023-09-19T06:50:16;2.03;;;0.70;;
65358;SDS011;52491;45.900;6.346;2023-09-19T06:52:47;3.72;;;0.80;;
65358;SDS011;52491;45.900;6.346;2023-09-19T06:55:15;3.58;;;0.68;;
65358;SDS011;52491;45.900;6.346;2023-09-19T06:57:42;2.53;;;0.90;;
65358;SDS011;52491;45.900;6.346;2023-09-19T07:00:09;3.47;;;0.98;;
65358;SDS011;52491;45.900;6.346;2023-09-19T07:02:43;4.32;;;0.98;;
65358;SDS011;52491;45.900;6.346;2023-09-19T07:05:19;3.85;;;0.73;;
65358;SDS011;52491;45.900;6.346;2023-09-19T07:07:46;1.13;;;0.43;;
65358;SDS011;52491;45.900;6.346;2023-09-19T07:10:12;3.53;;;1.20;;
65358;SDS011;52491;45.900;6.346;2023-09-19T07:12:38;2.60;;;0.47;;
65358;SDS011;52491;45.900;6.346;2023-09-19T07:15:04;1.55;;;0.80;;
65358;SDS011;52491;45.900;6.346;2023-09-19T07:17:31;1.25;;;0.80;;
65358;SDS011;52491;45.900;6.346;2023-09-19T07:19:58;3.20;;;0.70;;
65358;SDS011;52491;45.900;6.346;2023-09-19T07:22:24;0.73;;;0.65;;
65358;SDS011;52491;45.900;6.346;2023-09-19T07:24:51;2.60;;;0.77;;
65358;SDS011;52491;45.900;6.346;2023-09-19T07:27:17;4.13;;;0.68;;
65358;SDS011;52491;45.900;6.346;2023-09-19T07:29:42;3.15;;;0.77;;
65358;SDS011;52491;45.900;6.346;2023-09-19T07:32:08;1.40;;;0.63;;
65358;SDS011;52491;45.900;6.346;2023-09-19T07:34:35;1.90;;;0.82;;
65358;SDS011;52491;45.900;6.346;2023-09-19T07:37:00;3.10;;;0.73;;
65358;SDS011;52491;45.900;6.346;2023-09-19T07:39:27;2.30;;;0.50;;
65358;SDS011;52491;45.900;6.346;2023-09-19T07:41:53;1.65;;;0.85;;
65358;SDS011;52491;45.900;6.346;2023-09-19T07:44:19;2.92;;;0.50;;
65358;SDS011;52491;45.900;6.346;2023-09-19T07:46:45;1.17;;;0.65;;
65358;SDS011;52491;45.900;6.346;2023-09-19T07:49:10;1.10;;;0.60;;
65358;SDS011;52491;45.900;6.346;2023-09-19T07:51:36;1.33;;;0.60;;
65358;SDS011;52491;45.900;6.346;2023-09-19T07:54:02;1.67;;;0.70;;
65358;SDS011;52491;45.900;6.346;2023-09-19T07:56:28;1.02;;;0.52;;
65358;SDS011;52491;45.900;6.346;2023-09-19T07:58:54;1.27;;;0.77;;
65358;SDS011;52491;45.900;6.346;2023-09-19T08:01:19;4.55;;;0.70;;
65358;SDS011;52491;45.900;6.346;2023-09-19T08:03:48;2.25;;;0.70;;
65358;SDS011;52491;45.900;6.346;2023-09-19T08:06:14;0.90;;;0.57;;
65358;SDS011;52491;45.900;6.346;2023-09-19T08:08:40;1.75;;;0.52;;
65358;SDS011;52491;45.900;6.346;2023-09-19T08:11:06;0.55;;;0.38;;
65358;SDS011;52491;45.900;6.346;2023-09-19T08:13:38;1.63;;;0.65;;
65358;SDS011;52491;45.900;6.346;2023-09-19T08:16:10;0.90;;;0.50;;
65358;SDS011;52491;45.900;6.346;2023-09-19T08:18:36;1.08;;;0.63;;
65358;SDS011;52491;45.900;6.346;2023-09-19T08:21:06;1.08;;;0.60;;
65358;SDS011;52491;45.900;6.346;2023-09-19T08:23:39;0.95;;;0.45;;
65358;SDS011;52491;45.900;6.346;2023-09-19T08:26:05;0.60;;;0.40;;
65358;SDS011;52491;45.900;6.346;2023-09-19T08:28:34;0.73;;;0.60;;
65358;SDS011;52491;45.900;6.346;2023-09-19T08:31:03;1.23;;;0.57;;
65358;SDS011;52491;45.900;6.346;2023-09-19T08:33:33;0.63;;;0.50;;
65358;SDS011;52491;45.900;6.346;2023-09-19T08:36:01;0.60;;;0.50;;
65358;SDS011;52491;45.900;6.346;2023-09-19T08:38:30;0.68;;;0.43;;
65358;SDS011;52491;45.900;6.346;2023-09-19T08:40:58;1.80;;;0.70;;
65358;SDS011;52491;45.900;6.346;2023-09-19T08:43:27;0.85;;;0.57;;
65358;SDS011;52491;45.900;6.346;2023-09-19T08:45:56;1.20;;;0.50;;
65358;SDS011;52491;45.900;6.346;2023-09-19T08:48:29;1.90;;;0.57;;
65358;SDS011;52491;45.900;6.346;2023-09-19T08:50:57;1.10;;;0.50;;
65358;SDS011;52491;45.900;6.346;2023-09-19T08:55:59;0.90;;;0.40;;
65358;SDS011;52491;45.900;6.346;2023-09-19T08:58:30;0.73;;;0.60;;
65358;SDS011;52491;45.900;6.346;2023-09-19T09:01:00;1.38;;;0.80;;
65358;SDS011;52491;45.900;6.346;2023-09-19T09:03:26;1.23;;;0.50;;
65358;SDS011;52491;45.900;6.346;2023-09-19T09:05:57;0.60;;;0.50;;
65358;SDS011;52491;45.900;6.346;2023-09-19T09:08:23;2.17;;;0.43;;
65358;SDS011;52491;45.900;6.346;2023-09-19T09:10:50;0.52;;;0.40;;
65358;SDS011;52491;45.900;6.346;2023-09-19T09:13:16;1.50;;;0.50;;
65358;SDS011;52491;45.900;6.346;2023-09-19T09:15:42;0.80;;;0.63;;
65358;SDS011;52491;45.900;6.346;2023-09-19T09:18:09;0.40;;;0.40;;
65358;SDS011;52491;45.900;6.346;2023-09-19T09:20:35;1.52;;;0.52;;
65358;SDS011;52491;45.900;6.346;2023-09-19T09:23:01;1.10;;;0.60;;
65358;SDS011;52491;45.900;6.346;2023-09-19T09:28:21;0.70;;;0.70;;
65358;SDS011;52491;45.900;6.346;2023-09-19T09:30:48;0.50;;;0.50;;
65358;SDS011;52491;45.900;6.346;2023-09-19T09:33:14;0.95;;;0.50;;
65358;SDS011;52491;45.900;6.346;2023-09-19T09:35:56;2.38;;;0.73;;
65358;SDS011;52491;45.900;6.346;2023-09-19T09:38:27;0.75;;;0.70;;
65358;SDS011;52491;45.900;6.346;2023-09-19T09:40:58;2.38;;;0.50;;
65358;SDS011;52491;45.900;6.346;2023-09-19T09:43:35;0.50;;;0.45;;
65358;SDS011;52491;45.900;6.346;2023-09-19T09:46:10;0.55;;;0.40;;
65358;SDS011;52491;45.900;6.346;2023-09-19T09:48:45;0.40;;;0.40;;
65358;SDS011;52491;45.900;6.346;2023-09-19T09:51:32;1.00;;;0.65;;
65358;SDS011;52491;45.900;6.346;2023-09-19T09:54:14;1.17;;;0.50;;
65358;SDS011;52491;45.900;6.346;2023-09-19T09:56:54;1.98;;;0.60;;
65358;SDS011;52491;45.900;6.346;2023-09-19T09:59:50;0.60;;;0.35;;
65358;SDS011;52491;45.900;6.346;2023-09-19T10:02:21;0.40;;;0.40;;
65358;SDS011;52491;45.900;6.346;2023-09-19T10:05:17;0.50;;;0.50;;
65358;SDS011;52491;45.900;6.346;2023-09-19T10:07:48;2.05;;;0.80;;
65358;SDS011;52491;45.900;6.346;2023-09-19T10:10:37;0.75;;;0.63;;
65358;SDS011;52491;45.900;6.346;2023-09-19T10:13:07;0.77;;;0.35;;
65358;SDS011;52491;45.900;6.346;2023-09-19T10:15:40;0.35;;;0.28;;
65358;SDS011;52491;45.900;6.346;2023-09-19T10:18:14;0.70;;;0.65;;
65358;SDS011;52491;45.900;6.346;2023-09-19T10:20:44;2.95;;;0.45;;
65358;SDS011;52491;45.900;6.346;2023-09-19T10:23:11;0.60;;;0.30;;
65358;SDS011;52491;45.900;6.346;2023-09-19T10:25:41;0.52;;;0.30;;
65358;SDS011;52491;45.900;6.346;2023-09-19T10:28:09;1.23;;;0.55;;
65358;SDS011;52491;45.900;6.346;2023-09-19T10:30:46;0.43;;;0.40;;
65358;SDS011;52491;45.900;6.346;2023-09-19T10:33:15;0.88;;;0.40;;
65358;SDS011;52491;45.900;6.346;2023-09-19T10:35:46;2.63;;;0.50;;
65358;SDS011;52491;45.900;6.346;2023-09-19T10:38:14;0.95;;;0.50;;
65358;SDS011;52491;45.900;6.346;2023-09-19T10:40:44;1.25;;;0.52;;
65358;SDS011;52491;45.900;6.346;2023-09-19T10:43:15;2.05;;;0.38;;
65358;SDS011;52491;45.900;6.346;2023-09-19T10:45:46;1.25;;;0.60;;
65358;SDS011;52491;45.900;6.346;2023-09-19T10:48:20;1.60;;;0.52;;
65358;SDS011;52491;45.900;6.346;2023-09-19T10:50:57;0.70;;;0.50;;
65358;SDS011;52491;45.900;6.346;2023-09-19T10:53:32;5.93;;;0.88;;
65358;SDS011;52491;45.900;6.346;2023-09-19T10:56:17;1.17;;;0.35;;
65358;SDS011;52491;45.900;6.346;2023-09-19T10:58:48;1.17;;;0.57;;
65358;SDS011;52491;45.900;6.346;2023-09-19T11:01:14;0.43;;;0.40;;
65358;SDS011;52491;45.900;6.346;2023-09-19T11:03:44;0.80;;;0.30;;
65358;SDS011;52491;45.900;6.346;2023-09-19T11:06:11;0.80;;;0.50;;
65358;SDS011;52491;45.900;6.346;2023-09-19T11:11:49;1.67;;;0.50;;
65358;SDS011;52491;45.900;6.346;2023-09-19T11:30:51;2.75;;;0.50;;
65358;SDS011;52491;45.900;6.346;2023-09-19T11:36:08;1.40;;;0.50;;
65358;SDS011;52491;45.900;6.346;2023-09-19T11:44:31;0.63;;;0.50;;
65358;SDS011;52491;45.900;6.346;2023-09-19T11:46:53;0.35;;;0.30;;
65358;SDS011;52491;45.900;6.346;2023-09-19T11:49:26;0.65;;;0.40;;
65358;SDS011;52491;45.900;6.346;2023-09-19T11:51:55;0.68;;;0.38;;
65358;SDS011;52491;45.900;6.346;2023-09-19T11:54:21;0.90;;;0.47;;
65358;SDS011;52491;45.900;6.346;2023-09-19T11:56:50;0.32;;;0.30;;
65358;SDS011;52491;45.900;6.346;2023-09-19T12:01:52;0.93;;;0.65;;
65358;SDS011;52491;45.900;6.346;2023-09-19T12:04:34;0.40;;;0.40;;
65358;SDS011;52491;45.900;6.346;2023-09-19T12:07:04;0.80;;;0.50;;
65358;SDS011;52491;45.900;6.346;2023-09-19T12:09:41;0.88;;;0.40;;
65358;SDS011;52491;45.900;6.346;2023-09-19T12:12:09;0.68;;;0.40;;
65358;SDS011;52491;45.900;6.346;2023-09-19T12:14:55;1.17;;;0.40;;
65358;SDS011;52491;45.900;6.346;2023-09-19T12:20:04;2.75;;;0.52;;
65358;SDS011;52491;45.900;6.346;2023-09-19T12:22:40;0.38;;;0.30;;
65358;SDS011;52491;45.900;6.346;2023-09-19T12:25:10;0.85;;;0.50;;
65358;SDS011;52491;45.900;6.346;2023-09-19T12:27:46;0.47;;;0.30;;
65358;SDS011;52491;45.900;6.346;2023-09-19T12:30:14;0.30;;;0.30;;
65358;SDS011;52491;45.900;6.346;2023-09-19T12:32:42;0.63;;;0.50;;
65358;SDS011;52491;45.900;6.346;2023-09-19T12:35:09;1.80;;;0.40;;
65358;SDS011;52491;45.900;6.346;2023-09-19T12:37:51;0.73;;;0.32;;
65358;SDS011;52491;45.900;6.346;2023-09-19T12:40:20;0.20;;;0.20;;
65358;SDS011;52491;45.900;6.346;2023-09-19T12:42:50;0.90;;;0.50;;
65358;SDS011;52491;45.900;6.346;2023-09-19T12:45:18;0.63;;;0.60;;
65358;SDS011;52491;45.900;6.346;2023-09-19T12:51:21;0.52;;;0.43;;
65358;SDS011;52491;45.900;6.346;2023-09-19T12:53:41;0.85;;;0.38;;
65358;SDS011;52491;45.900;6.346;2023-09-19T12:56:14;0.85;;;0.63;;
65358;SDS011;52491;45.900;6.346;2023-09-19T12:58:57;2.75;;;0.30;;
65358;SDS011;52491;45.900;6.346;2023-09-19T13:01:27;0.70;;;0.30;;
65358;SDS011;52491;45.900;6.346;2023-09-19T13:06:44;0.57;;;0.55;;
65358;SDS011;52491;45.900;6.346;2023-09-19T13:09:13;2.20;;;0.30;;
65358;SDS011;52491;45.900;6.346;2023-09-19T13:11:40;0.93;;;0.40;;
65358;SDS011;52491;45.900;6.346;2023-09-19T13:14:16;4.80;;;0.63;;
65358;SDS011;52491;45.900;6.346;2023-09-19T13:19:51;0.57;;;0.50;;
65358;SDS011;52491;45.900;6.346;2023-09-19T13:25:14;2.22;;;0.35;;
65358;SDS011;52491;45.900;6.346;2023-09-19T13:27:49;1.00;;;0.40;;
65358;SDS011;52491;45.900;6.346;2023-09-19T13:30:21;0.65;;;0.30;;
65358;SDS011;52491;45.900;6.346;2023-09-19T13:32:50;0.63;;;0.30;;
65358;SDS011;52491;45.900;6.346;2023-09-19T13:35:17;0.70;;;0.30;;
65358;SDS011;52491;45.900;6.346;2023-09-19T13:37:42;1.38;;;0.60;;
65358;SDS011;52491;45.900;6.346;2023-09-19T13:40:13;0.20;;;0.20;;
65358;SDS011;52491;45.900;6.346;2023-09-19T13:42:40;0.25;;;0.25;;
65358;SDS011;52491;45.900;6.346;2023-09-19T13:45:06;0.50;;;0.32;;
65358;SDS011;52491;45.900;6.346;2023-09-19T13:47:33;0.45;;;0.43;;
65358;SDS011;52491;45.900;6.346;2023-09-19T13:49:59;0.30;;;0.30;;
65358;SDS011;52491;45.900;6.346;2023-09-19T13:52:29;0.73;;;0.45;;
65358;SDS011;52491;45.900;6.346;2023-09-19T13:54:55;1.58;;;0.40;;
65358;SDS011;52491;45.900;6.346;2023-09-19T13:57:25;0.40;;;0.40;;
65358;SDS011;52491;45.900;6.346;2023-09-19T13:59:51;0.85;;;0.30;;
65358;SDS011;52491;45.900;6.346;2023-09-19T14:02:19;1.02;;;0.47;;
65358;SDS011;52491;45.900;6.346;2023-09-19T14:04:47;1.67;;;0.50;;
65358;SDS011;52491;45.900;6.346;2023-09-19T14:07:14;1.17;;;0.35;;
65358;SDS011;52491;45.900;6.346;2023-09-19T14:09:40;1.85;;;0.15;;
65358;SDS011;52491;45.900;6.346;2023-09-19T14:12:06;0.95;;;0.40;;
65358;SDS011;52491;45.900;6.346;2023-09-19T14:14:32;1.63;;;0.40;;
65358;SDS011;52491;45.900;6.346;2023-09-19T14:16:58;0.30;;;0.30;;
65358;SDS011;52491;45.900;6.346;2023-09-19T14:19:26;1.83;;;0.30;;
65358;SDS011;52491;45.900;6.346;2023-09-19T14:21:52;3.75;;;0.45;;
65358;SDS011;52491;45.900;6.346;2023-09-19T14:24:20;0.80;;;0.30;;
65358;SDS011;52491;45.900;6.346;2023-09-19T14:26:47;0.43;;;0.40;;
65358;SDS011;52491;45.900;6.346;2023-09-19T14:29:14;0.85;;;0.43;;
65358;SDS011;52491;45.900;6.346;2023-09-19T14:31:40;0.90;;;0.40;;
65358;SDS011;52491;45.900;6.346;2023-09-19T14:34:06;0.82;;;0.50;;
65358;SDS011;52491;45.900;6.346;2023-09-19T14:36:35;0.82;;;0.40;;
65358;SDS011;52491;45.900;6.346;2023-09-19T14:39:01;1.88;;;0.47;;
65358;SDS011;52491;45.900;6.346;2023-09-19T14:41:27;1.52;;;0.50;;
65358;SDS011;52491;45.900;6.346;2023-09-19T14:43:53;0.30;;;0.30;;
65358;SDS011;52491;45.900;6.346;2023-09-19T14:46:20;0.50;;;0.30;;
65358;SDS011;52491;45.900;6.346;2023-09-19T14:48:46;1.13;;;0.45;;
65358;SDS011;52491;45.900;6.346;2023-09-19T14:51:12;1.27;;;0.40;;
65358;SDS011;52491;45.900;6.346;2023-09-19T14:53:39;0.40;;;0.40;;
65358;SDS011;52491;45.900;6.346;2023-09-19T14:56:07;0.40;;;0.40;;
65358;SDS011;52491;45.900;6.346;2023-09-19T14:58:33;0.40;;;0.40;;
65358;SDS011;52491;45.900;6.346;2023-09-19T15:01:04;1.65;;;0.52;;
65358;SDS011;52491;45.900;6.346;2023-09-19T15:03:31;0.80;;;0.50;;
65358;SDS011;52491;45.900;6.346;2023-09-19T15:06:02;2.70;;;0.57;;
65358;SDS011;52491;45.900;6.346;2023-09-19T15:08:30;2.28;;;0.68;;
65358;SDS011;52491;45.900;6.346;2023-09-19T15:11:06;1.38;;;0.60;;
65358;SDS011;52491;45.900;6.346;2023-09-19T15:13:33;0.40;;;0.40;;
65358;SDS011;52491;45.900;6.346;2023-09-19T15:16:02;1.13;;;0.65;;
65358;SDS011;52491;45.900;6.346;2023-09-19T15:18:30;0.68;;;0.35;;
65358;SDS011;52491;45.900;6.346;2023-09-19T15:21:01;1.98;;;0.55;;
65358;SDS011;52491;45.900;6.346;2023-09-19T15:23:29;0.57;;;0.57;;
65358;SDS011;52491;45.900;6.346;2023-09-19T15:25:57;3.10;;;0.50;;
65358;SDS011;52491;45.900;6.346;2023-09-19T15:28:23;0.50;;;0.50;;
65358;SDS011;52491;45.900;6.346;2023-09-19T15:30:50;1.10;;;0.50;;
65358;SDS011;52491;45.900;6.346;2023-09-19T15:33:16;0.50;;;0.50;;
65358;SDS011;52491;45.900;6.346;2023-09-19T15:35:43;0.75;;;0.57;;
65358;SDS011;52491;45.900;6.346;2023-09-19T15:38:10;1.50;;;0.43;;
65358;SDS011;52491;45.900;6.346;2023-09-19T15:40:45;1.27;;;0.50;;
65358;SDS011;52491;45.900;6.346;2023-09-19T15:43:13;0.57;;;0.40;;
65358;SDS011;52491;45.900;6.346;2023-09-19T15:45:40;0.80;;;0.50;;
65358;SDS011;52491;45.900;6.346;2023-09-19T15:48:07;1.30;;;0.40;;
65358;SDS011;52491;45.900;6.346;2023-09-19T15:50:33;1.95;;;0.60;;
65358;SDS011;52491;45.900;6.346;2023-09-19T15:52:58;2.15;;;0.55;;
65358;SDS011;52491;45.900;6.346;2023-09-19T15:55:24;1.65;;;0.50;;
65358;SDS011;52491;45.900;6.346;2023-09-19T15:57:51;2.40;;;0.45;;